createdAt,value
2016-03-20T00:00:58.151Z,0
2016-03-20T00:01:58.154Z,0
2016-03-20T00:02:58.173Z,0
2016-03-20T00:03:58.190Z,0
2016-03-20T00:04:58.193Z,0
2016-03-20T00:05:58.195Z,0
2016-03-20T00:06:58.073Z,0
2016-03-20T00:07:58.232Z,0
2016-03-20T00:08:58.250Z,0
2016-03-20T00:09:58.269Z,0
2016-03-20T00:10:58.256Z,0
2016-03-20T00:11:58.274Z,0
2016-03-20T00:12:58.261Z,0
2016-03-20T00:13:58.279Z,0
2016-03-20T00:14:58.299Z,0
2016-03-20T00:15:58.332Z,0
2016-03-20T00:16:58.319Z,0
2016-03-20T00:17:58.337Z,0
2016-03-20T00:18:58.356Z,0
2016-03-20T00:19:58.358Z,0
2016-03-20T00:20:58.377Z,0
2016-03-20T00:21:58.379Z,0
2016-03-20T00:22:58.382Z,0
2016-03-20T00:23:58.400Z,0
2016-03-20T00:24:58.465Z,0
2016-03-20T00:25:58.468Z,0
2016-03-20T00:26:58.440Z,0
2016-03-20T00:27:58.458Z,0
2016-03-20T00:28:58.476Z,0
2016-03-20T00:29:58.479Z,0
2016-03-20T00:30:58.497Z,0
2016-03-20T00:31:58.531Z,0
2016-03-20T00:32:58.518Z,0
2016-03-20T00:33:58.552Z,0
2016-03-20T00:34:58.570Z,0
2016-03-20T00:35:58.558Z,0
2016-03-20T00:36:58.576Z,0
2016-03-20T00:37:58.578Z,0
2016-03-20T00:38:58.597Z,0
2016-03-20T00:39:58.600Z,0
2016-03-20T00:40:58.603Z,0
2016-03-20T00:41:58.605Z,0
2016-03-20T00:42:58.624Z,0
2016-03-20T00:43:58.657Z,0
2016-03-20T00:44:58.675Z,0
2016-03-20T00:45:58.569Z,0
2016-03-20T00:46:58.696Z,0
2016-03-20T00:47:58.700Z,0
2016-03-20T00:48:58.718Z,0
2016-03-20T00:49:58.752Z,0
2016-03-20T00:50:58.754Z,0
2016-03-20T00:51:58.741Z,0
2016-03-20T00:52:58.759Z,0
2016-03-20T00:53:58.762Z,0
2016-03-20T00:54:58.796Z,0
2016-03-20T00:55:58.784Z,0
2016-03-20T00:56:58.801Z,0
2016-03-20T00:57:58.820Z,0
2016-03-20T00:58:58.823Z,0
2016-03-20T00:59:58.873Z,0
2016-03-20T01:00:58.781Z,0
2016-03-20T01:01:58.909Z,0
2016-03-20T01:02:58.912Z,0
2016-03-20T01:03:58.883Z,0
2016-03-20T01:04:58.917Z,0
2016-03-20T01:05:58.920Z,0
2016-03-20T01:06:58.939Z,0
2016-03-20T01:07:58.956Z,0
2016-03-20T01:08:58.943Z,0
2016-03-20T01:09:58.993Z,0
2016-03-20T01:10:58.980Z,0
2016-03-20T01:11:58.998Z,0
2016-03-20T01:12:59.016Z,0
2016-03-20T01:13:59.035Z,0
2016-03-20T01:14:58.881Z,0
2016-03-20T01:15:59.040Z,0
2016-03-20T01:16:59.058Z,0
2016-03-20T01:17:59.061Z,0
2016-03-20T01:18:59.080Z,0
2016-03-20T01:19:58.910Z,0
2016-03-20T01:20:59.085Z,0
2016-03-20T01:21:59.149Z,0
2016-03-20T01:22:59.168Z,0
2016-03-20T01:23:59.140Z,0
2016-03-20T01:24:59.158Z,0
2016-03-20T01:25:59.177Z,0
2016-03-20T01:26:59.179Z,0
2016-03-20T01:27:59.166Z,0
2016-03-20T01:28:59.185Z,0
2016-03-20T01:29:59.204Z,0
2016-03-20T01:30:59.253Z,0
2016-03-20T01:31:59.224Z,0
2016-03-20T01:32:59.259Z,0
2016-03-20T01:33:59.276Z,0
2016-03-20T01:34:59.278Z,0
2016-03-20T01:35:59.281Z,0
2016-03-20T01:36:59.315Z,0
2016-03-20T01:37:59.272Z,0
2016-03-20T01:38:59.305Z,0
2016-03-20T01:39:59.340Z,0
2016-03-20T01:40:59.326Z,0
2016-03-20T01:41:59.345Z,0
2016-03-20T01:42:59.347Z,0
2016-03-20T01:43:59.350Z,0
2016-03-20T01:44:59.352Z,0
2016-03-20T01:45:59.371Z,0
2016-03-20T01:46:59.405Z,0
2016-03-20T01:47:59.423Z,0
2016-03-20T01:48:59.410Z,0
2016-03-20T01:49:59.429Z,0
2016-03-20T01:50:59.432Z,0
2016-03-20T01:51:59.450Z,0
2016-03-20T01:52:59.483Z,0
2016-03-20T01:53:59.486Z,0
2016-03-20T01:54:59.474Z,0
2016-03-20T01:55:59.491Z,0
2016-03-20T01:56:59.556Z,0
2016-03-20T01:57:59.763Z,0
2016-03-20T01:58:59.546Z,0
2016-03-20T01:59:59.565Z,0
2016-03-20T02:00:59.598Z,0
2016-03-20T02:01:59.554Z,0
2016-03-20T02:02:59.589Z,0
2016-03-20T02:03:59.607Z,0
2016-03-20T02:04:59.626Z,0
2016-03-20T02:05:59.628Z,0
2016-03-20T02:06:59.630Z,0
2016-03-20T02:07:59.648Z,0
2016-03-20T02:08:59.636Z,0
2016-03-20T02:09:59.654Z,0
2016-03-20T02:10:59.689Z,0
2016-03-20T02:11:59.692Z,0
2016-03-20T02:12:59.709Z,0
2016-03-20T02:13:59.712Z,0
2016-03-20T02:14:59.714Z,0
2016-03-20T02:15:59.749Z,0
2016-03-20T02:16:59.736Z,0
2016-03-20T02:17:59.785Z,0
2016-03-20T02:18:59.757Z,0
2016-03-20T02:19:59.790Z,0
2016-03-20T02:20:59.793Z,0
2016-03-20T02:21:59.811Z,0
2016-03-20T02:22:59.846Z,0
2016-03-20T02:23:59.833Z,0
2016-03-20T02:24:59.835Z,0
2016-03-20T02:25:59.838Z,0
2016-03-20T02:26:59.857Z,0
2016-03-20T02:27:59.906Z,0
2016-03-20T02:28:59.909Z,0
2016-03-20T02:29:59.912Z,0
2016-03-20T02:30:59.898Z,0
2016-03-20T02:31:59.948Z,0
2016-03-20T02:32:59.904Z,0
2016-03-20T02:33:59.937Z,0
2016-03-20T02:34:59.956Z,0
2016-03-20T02:35:59.928Z,0
2016-03-20T02:36:59.962Z,0
2016-03-20T02:38:00.026Z,0
2016-03-20T02:38:59.982Z,0
2016-03-20T02:40:00.001Z,0
2016-03-20T02:41:00.019Z,0
2016-03-20T02:42:00.006Z,0
2016-03-20T02:43:00.024Z,0
2016-03-20T02:44:00.027Z,0
2016-03-20T02:45:00.061Z,0
2016-03-20T02:46:00.094Z,0
2016-03-20T02:47:00.067Z,0
2016-03-20T02:48:00.085Z,0
2016-03-20T02:49:00.088Z,0
2016-03-20T02:50:00.105Z,0
2016-03-20T02:51:00.124Z,0
2016-03-20T02:52:00.127Z,0
2016-03-20T02:53:00.129Z,0
2016-03-20T02:54:00.163Z,0
2016-03-20T02:55:00.166Z,0
2016-03-20T02:56:00.169Z,0
2016-03-20T02:57:00.171Z,0
2016-03-20T02:58:00.190Z,0
2016-03-20T02:59:00.207Z,0
2016-03-20T03:00:00.274Z,0
2016-03-20T03:01:00.229Z,0
2016-03-20T03:02:00.247Z,0
2016-03-20T03:03:00.797Z,0
2016-03-20T03:04:00.253Z,0
2016-03-20T03:05:00.256Z,0
2016-03-20T03:06:00.273Z,0
2016-03-20T03:07:00.299Z,0
2016-03-20T03:08:00.317Z,0
2016-03-20T03:09:00.336Z,0
2016-03-20T03:10:00.322Z,0
2016-03-20T03:11:00.169Z,0
2016-03-20T03:12:00.344Z,0
2016-03-20T03:13:00.361Z,0
2016-03-20T03:14:00.380Z,0
2016-03-20T03:15:00.383Z,0
2016-03-20T03:16:00.432Z,0
2016-03-20T03:17:00.419Z,0
2016-03-20T03:18:00.407Z,0
2016-03-20T03:19:00.424Z,0
2016-03-20T03:20:00.427Z,0
2016-03-20T03:21:00.462Z,0
2016-03-20T03:22:00.448Z,0
2016-03-20T03:23:00.498Z,0
2016-03-20T03:24:00.485Z,0
2016-03-20T03:25:00.487Z,0
2016-03-20T03:26:00.507Z,0
2016-03-20T03:27:00.509Z,0
2016-03-20T03:28:00.527Z,0
2016-03-20T03:29:00.561Z,0
2016-03-20T03:30:00.564Z,0
2016-03-20T03:31:00.566Z,0
2016-03-20T03:32:00.570Z,0
2016-03-20T03:33:00.587Z,0
2016-03-20T03:34:00.606Z,0
2016-03-20T03:35:00.608Z,0
2016-03-20T03:36:00.627Z,0
2016-03-20T03:37:00.630Z,0
2016-03-20T03:38:00.648Z,0
2016-03-20T03:39:00.666Z,0
2016-03-20T03:40:00.683Z,0
2016-03-20T03:41:00.687Z,0
2016-03-20T03:42:00.689Z,0
2016-03-20T03:43:00.708Z,0
2016-03-20T03:44:00.741Z,0
2016-03-20T03:45:00.729Z,0
2016-03-20T03:46:00.732Z,0
2016-03-20T03:47:00.735Z,0
2016-03-20T03:48:00.768Z,0
2016-03-20T03:49:00.771Z,0
2016-03-20T03:50:00.790Z,0
2016-03-20T03:51:00.776Z,0
2016-03-20T03:52:00.842Z,0
2016-03-20T03:53:00.813Z,0
2016-03-20T03:54:00.816Z,0
2016-03-20T03:55:00.849Z,0
2016-03-20T03:56:00.837Z,0
2016-03-20T03:57:00.887Z,0
2016-03-20T03:58:00.889Z,0
2016-03-20T03:59:00.892Z,0
2016-03-20T04:00:00.909Z,0
2016-03-20T04:01:00.898Z,0
2016-03-20T04:02:00.743Z,0
2016-03-20T04:03:00.955Z,0
2016-03-20T04:04:00.941Z,0
2016-03-20T04:05:00.991Z,0
2016-03-20T04:06:00.963Z,0
2016-03-20T04:07:00.886Z,0
2016-03-20T04:08:00.999Z,0
2016-03-20T04:09:01.001Z,0
2016-03-20T04:10:01.019Z,0
2016-03-20T04:11:01.039Z,0
2016-03-20T04:12:01.010Z,0
2016-03-20T04:13:01.059Z,0
2016-03-20T04:14:01.047Z,0
2016-03-20T04:15:01.080Z,0
2016-03-20T04:16:01.051Z,0
2016-03-20T04:17:01.070Z,0
2016-03-20T04:18:01.104Z,0
2016-03-20T04:19:01.122Z,0
2016-03-20T04:20:00.376Z,0
2016-03-20T04:21:00.971Z,0
2016-03-20T04:22:01.130Z,0
2016-03-20T04:23:01.165Z,0
2016-03-20T04:24:01.151Z,0
2016-03-20T04:25:01.169Z,0
2016-03-20T04:26:01.188Z,0
2016-03-20T04:27:01.180Z,0
2016-03-20T04:28:01.233Z,0
2016-03-20T04:29:01.176Z,0
2016-03-20T04:30:01.182Z,0
2016-03-20T04:31:01.172Z,0
2016-03-20T04:32:01.183Z,0
2016-03-20T04:33:01.213Z,0
2016-03-20T04:34:01.212Z,0
2016-03-20T04:35:01.225Z,0
2016-03-20T04:36:01.208Z,0
2016-03-20T04:37:01.224Z,0
2016-03-20T04:38:01.241Z,0
2016-03-20T04:39:01.242Z,0
2016-03-20T04:40:01.258Z,0
2016-03-20T04:41:01.275Z,0
2016-03-20T04:42:01.293Z,0
2016-03-20T04:43:01.295Z,0
2016-03-20T04:44:01.281Z,0
2016-03-20T04:45:01.298Z,0
2016-03-20T04:46:01.331Z,0
2016-03-20T04:47:01.350Z,0
2016-03-20T04:48:01.368Z,0
2016-03-20T04:49:01.339Z,0
2016-03-20T04:50:01.358Z,0
2016-03-20T04:51:01.361Z,0
2016-03-20T04:52:01.378Z,0
2016-03-20T04:53:01.412Z,0
2016-03-20T04:54:01.415Z,0
2016-03-20T04:55:01.433Z,0
2016-03-20T04:56:01.453Z,0
2016-03-20T04:57:01.423Z,0
2016-03-20T04:58:01.457Z,0
2016-03-20T04:59:01.476Z,0
2016-03-20T05:00:01.478Z,4
2016-03-20T05:01:01.527Z,4
2016-03-20T05:02:01.484Z,4
2016-03-20T05:03:01.518Z,4
2016-03-20T05:04:01.505Z,0
2016-03-20T05:05:01.524Z,0
2016-03-20T05:06:01.557Z,4
2016-03-20T05:07:01.543Z,4
2016-03-20T05:08:01.578Z,0
2016-03-20T05:09:01.580Z,4
2016-03-20T05:10:01.661Z,4
2016-03-20T05:11:01.586Z,8
2016-03-20T05:12:01.588Z,4
2016-03-20T05:13:01.638Z,8
2016-03-20T05:14:01.657Z,8
2016-03-20T05:15:01.659Z,8
2016-03-20T05:16:01.709Z,12
2016-03-20T05:17:01.696Z,8
2016-03-20T05:18:01.683Z,12
2016-03-20T05:19:01.701Z,8
2016-03-20T05:20:01.704Z,12
2016-03-20T05:21:01.707Z,12
2016-03-20T05:22:01.725Z,12
2016-03-20T05:23:01.743Z,16
2016-03-20T05:24:01.778Z,16
2016-03-20T05:25:01.748Z,16
2016-03-20T05:26:01.783Z,20
2016-03-20T05:27:01.800Z,20
2016-03-20T05:29:01.805Z,24
2016-03-20T05:30:01.809Z,24
2016-03-20T05:31:01.827Z,28
2016-03-20T05:32:01.846Z,28
2016-03-20T05:33:01.849Z,28
2016-03-20T05:34:01.882Z,32
2016-03-20T05:35:01.854Z,32
2016-03-20T05:36:01.903Z,32
2016-03-20T05:37:01.765Z,36
2016-03-20T05:38:01.893Z,40
2016-03-20T05:39:01.927Z,40
2016-03-20T05:40:01.913Z,44
2016-03-20T05:41:01.933Z,44
2016-03-20T05:42:01.951Z,48
2016-03-20T05:43:01.937Z,52
2016-03-20T05:44:01.988Z,60
2016-03-20T05:45:01.974Z,64
2016-03-20T05:46:01.992Z,68
2016-03-20T05:47:02.073Z,72
2016-03-20T05:48:01.982Z,76
2016-03-20T05:49:02.032Z,80
2016-03-20T05:50:02.035Z,84
2016-03-20T05:51:02.053Z,80
2016-03-20T05:52:02.040Z,84
2016-03-20T05:53:02.059Z,84
2016-03-20T05:54:02.108Z,92
2016-03-20T05:55:02.078Z,92
2016-03-20T05:56:02.097Z,96
2016-03-20T05:57:02.131Z,100
2016-03-20T05:58:02.119Z,100
2016-03-20T05:59:02.169Z,100
2016-03-20T06:00:02.171Z,100
2016-03-20T06:01:02.158Z,100
2016-03-20T06:02:02.036Z,100
2016-03-20T06:03:02.179Z,100
2016-03-20T06:04:02.197Z,104
2016-03-20T06:05:02.215Z,104
2016-03-20T06:06:02.234Z,112
2016-03-20T06:07:02.236Z,116
2016-03-20T06:08:02.239Z,120
2016-03-20T06:09:02.258Z,124
2016-03-20T06:10:02.260Z,124
2016-03-20T06:11:02.263Z,128
2016-03-20T06:12:02.296Z,132
2016-03-20T06:13:02.299Z,132
2016-03-20T06:14:02.317Z,136
2016-03-20T06:15:02.712Z,140
2016-03-20T06:16:02.323Z,144
2016-03-20T06:17:02.342Z,152
2016-03-20T06:18:02.345Z,152
2016-03-20T06:19:02.393Z,152
2016-03-20T06:20:02.381Z,148
2016-03-20T06:21:02.415Z,156
2016-03-20T06:22:02.417Z,160
2016-03-20T06:23:02.420Z,168
2016-03-20T06:24:02.422Z,176
2016-03-20T06:25:02.425Z,176
2016-03-20T06:26:02.444Z,180
2016-03-20T06:27:02.494Z,184
2016-03-20T06:28:02.464Z,184
2016-03-20T06:29:02.499Z,192
2016-03-20T06:30:02.470Z,196
2016-03-20T06:31:02.489Z,196
2016-03-20T06:32:02.539Z,192
2016-03-20T06:33:02.525Z,196
2016-03-20T06:34:02.544Z,200
2016-03-20T06:35:02.578Z,200
2016-03-20T06:36:02.564Z,200
2016-03-20T06:37:02.582Z,204
2016-03-20T06:38:02.585Z,212
2016-03-20T06:39:02.604Z,220
2016-03-20T06:40:02.607Z,224
2016-03-20T06:41:02.640Z,228
2016-03-20T06:42:02.674Z,236
2016-03-20T06:43:02.474Z,244
2016-03-20T06:44:02.633Z,244
2016-03-20T06:45:02.713Z,244
2016-03-20T06:46:02.654Z,240
2016-03-20T06:47:02.673Z,244
2016-03-20T06:48:02.691Z,256
2016-03-20T06:49:02.740Z,264
2016-03-20T06:50:02.773Z,272
2016-03-20T06:51:02.730Z,280
2016-03-20T06:52:02.732Z,284
2016-03-20T06:53:02.735Z,292
2016-03-20T06:54:02.770Z,300
2016-03-20T06:55:02.756Z,300
2016-03-20T06:56:02.806Z,296
2016-03-20T06:57:02.793Z,296
2016-03-20T06:58:02.811Z,308
2016-03-20T06:59:02.830Z,308
2016-03-20T07:00:02.833Z,312
2016-03-20T07:01:02.850Z,316
2016-03-20T07:02:02.869Z,328
2016-03-20T07:03:03.012Z,348
2016-03-20T07:04:02.889Z,368
2016-03-20T07:05:02.877Z,380
2016-03-20T07:06:02.911Z,376
2016-03-20T07:07:02.897Z,372
2016-03-20T07:08:02.916Z,376
2016-03-20T07:09:02.935Z,388
2016-03-20T07:10:02.937Z,396
2016-03-20T07:11:02.941Z,396
2016-03-20T07:12:02.943Z,396
2016-03-20T07:13:02.977Z,400
2016-03-20T07:14:02.838Z,404
2016-03-20T07:15:02.982Z,404
2016-03-20T07:16:03.032Z,400
2016-03-20T07:17:03.034Z,392
2016-03-20T07:18:03.006Z,384
2016-03-20T07:19:03.054Z,388
2016-03-20T07:20:03.043Z,392
2016-03-20T07:21:03.076Z,392
2016-03-20T07:22:03.282Z,388
2016-03-20T07:23:03.097Z,384
2016-03-20T07:24:03.131Z,380
2016-03-20T07:25:03.103Z,388
2016-03-20T07:26:03.136Z,392
2016-03-20T07:27:03.139Z,392
2016-03-20T07:28:03.142Z,384
2016-03-20T07:29:03.175Z,388
2016-03-20T07:30:03.178Z,384
2016-03-20T07:31:03.244Z,388
2016-03-20T07:32:03.199Z,396
2016-03-20T07:33:03.203Z,412
2016-03-20T07:34:03.236Z,428
2016-03-20T07:35:03.207Z,436
2016-03-20T07:36:03.242Z,448
2016-03-20T07:37:03.119Z,460
2016-03-20T07:38:03.265Z,460
2016-03-20T07:39:03.269Z,456
2016-03-20T07:40:03.271Z,456
2016-03-20T07:41:03.304Z,448
2016-03-20T07:42:03.308Z,448
2016-03-20T07:43:03.325Z,452
2016-03-20T07:44:03.328Z,468
2016-03-20T07:45:03.331Z,476
2016-03-20T07:46:03.349Z,492
2016-03-20T07:47:03.352Z,500
2016-03-20T07:48:03.371Z,496
2016-03-20T07:49:03.404Z,492
2016-03-20T07:50:03.391Z,492
2016-03-20T07:51:03.410Z,496
2016-03-20T07:52:03.459Z,504
2016-03-20T07:53:03.463Z,512
2016-03-20T07:54:03.434Z,512
2016-03-20T07:55:03.436Z,500
2016-03-20T07:56:03.471Z,500
2016-03-20T07:57:03.473Z,504
2016-03-20T07:58:03.507Z,516
2016-03-20T07:59:03.525Z,516
2016-03-20T08:00:03.528Z,512
2016-03-20T08:01:03.545Z,528
2016-03-20T08:02:03.565Z,544
2016-03-20T08:03:03.536Z,532
2016-03-20T08:04:03.569Z,536
2016-03-20T08:05:03.557Z,548
2016-03-20T08:06:03.622Z,564
2016-03-20T08:07:03.594Z,580
2016-03-20T08:08:03.596Z,576
2016-03-20T08:09:03.599Z,572
2016-03-20T08:10:03.617Z,580
2016-03-20T08:11:03.619Z,612
2016-03-20T08:12:03.653Z,624
2016-03-20T08:13:03.641Z,620
2016-03-20T08:14:03.675Z,624
2016-03-20T08:15:03.693Z,628
2016-03-20T08:16:03.711Z,632
2016-03-20T08:17:03.713Z,660
2016-03-20T08:18:03.732Z,676
2016-03-20T08:19:03.610Z,680
2016-03-20T08:20:03.738Z,696
2016-03-20T08:21:03.756Z,692
2016-03-20T08:22:03.759Z,692
2016-03-20T08:23:03.793Z,724
2016-03-20T08:24:03.795Z,772
2016-03-20T08:25:03.798Z,800
2016-03-20T08:26:03.816Z,784
2016-03-20T08:27:03.818Z,776
2016-03-20T08:28:03.838Z,800
2016-03-20T08:29:03.074Z,836
2016-03-20T08:30:03.843Z,840
2016-03-20T08:31:03.908Z,836
2016-03-20T08:32:03.879Z,828
2016-03-20T08:33:03.882Z,864
2016-03-20T08:34:03.900Z,920
2016-03-20T08:35:03.934Z,952
2016-03-20T08:36:03.953Z,944
2016-03-20T08:37:03.925Z,956
2016-03-20T08:38:03.958Z,1048
2016-03-20T08:39:03.945Z,1172
2016-03-20T08:40:03.995Z,1244
2016-03-20T08:41:03.856Z,1212
2016-03-20T08:42:04.016Z,1196
2016-03-20T08:43:04.033Z,1208
2016-03-20T08:44:04.005Z,1212
2016-03-20T08:45:04.055Z,1204
2016-03-20T08:46:04.027Z,1220
2016-03-20T08:47:04.060Z,1224
2016-03-20T08:48:04.079Z,1220
2016-03-20T08:49:04.097Z,1236
2016-03-20T08:50:04.084Z,1288
2016-03-20T08:51:04.102Z,1336
2016-03-20T08:52:04.105Z,1404
2016-03-20T08:53:04.123Z,1392
2016-03-20T08:54:04.032Z,1304
2016-03-20T08:55:04.144Z,1236
2016-03-20T08:56:04.210Z,1216
2016-03-20T08:57:04.212Z,1248
2016-03-20T08:58:04.184Z,1300
2016-03-20T08:59:04.187Z,1336
2016-03-20T09:00:04.204Z,1360
2016-03-20T09:01:04.254Z,1368
2016-03-20T09:02:04.241Z,1380
2016-03-20T09:03:04.260Z,1428
2016-03-20T09:04:04.356Z,1468
2016-03-20T09:05:04.264Z,1472
2016-03-20T09:06:04.298Z,1408
2016-03-20T09:07:04.161Z,1312
2016-03-20T09:08:04.304Z,1252
2016-03-20T09:09:04.353Z,1228
2016-03-20T09:10:04.341Z,1248
2016-03-20T09:11:04.344Z,1316
2016-03-20T09:12:04.378Z,1372
2016-03-20T09:13:04.380Z,1392
2016-03-20T09:14:04.430Z,1432
2016-03-20T09:15:04.386Z,1492
2016-03-20T09:16:04.435Z,1580
2016-03-20T09:17:04.438Z,1804
2016-03-20T09:18:04.441Z,2028
2016-03-20T09:19:04.458Z,2132
2016-03-20T09:20:04.461Z,2124
2016-03-20T09:21:04.496Z,2004
2016-03-20T09:22:04.482Z,1880
2016-03-20T09:23:04.501Z,1776
2016-03-20T09:24:04.535Z,1720
2016-03-20T09:25:04.646Z,1680
2016-03-20T09:26:04.556Z,1664
2016-03-20T09:27:04.559Z,1652
2016-03-20T09:28:04.576Z,1624
2016-03-20T09:29:04.596Z,1600
2016-03-20T09:30:04.582Z,1596
2016-03-20T09:31:04.631Z,1596
2016-03-20T09:32:04.619Z,1616
2016-03-20T09:33:04.637Z,1640
2016-03-20T09:34:04.655Z,1636
2016-03-20T09:35:04.658Z,1624
2016-03-20T09:36:04.676Z,1616
2016-03-20T09:37:04.695Z,1624
2016-03-20T09:38:04.714Z,1628
2016-03-20T09:39:04.716Z,1660
2016-03-20T09:40:04.719Z,1680
2016-03-20T09:41:04.753Z,1712
2016-03-20T09:42:04.770Z,1752
2016-03-20T09:43:04.757Z,1776
2016-03-20T09:44:04.776Z,1784
2016-03-20T09:45:04.794Z,1776
2016-03-20T09:46:04.906Z,1808
2016-03-20T09:47:04.831Z,1908
2016-03-20T09:48:04.880Z,2032
2016-03-20T09:49:04.852Z,2080
2016-03-20T09:50:04.855Z,2160
2016-03-20T09:51:04.874Z,2268
2016-03-20T09:52:04.907Z,2376
2016-03-20T09:53:04.894Z,2496
2016-03-20T09:54:04.897Z,2700
2016-03-20T09:55:04.946Z,2876
2016-03-20T09:56:04.933Z,2980
2016-03-20T09:57:04.983Z,3084
2016-03-20T09:58:04.954Z,3260
2016-03-20T09:59:04.988Z,3380
2016-03-20T10:00:05.022Z,3460
2016-03-20T10:01:05.009Z,3424
2016-03-20T10:02:05.074Z,3296
2016-03-20T10:03:05.046Z,3176
2016-03-20T10:04:05.033Z,2828
2016-03-20T10:05:05.067Z,2652
2016-03-20T10:06:05.085Z,2652
2016-03-20T10:07:05.197Z,2748
2016-03-20T10:08:05.122Z,3076
2016-03-20T10:09:05.124Z,3196
2016-03-20T10:10:05.143Z,3260
2016-03-20T10:11:05.161Z,3224
2016-03-20T10:12:05.164Z,3056
2016-03-20T10:13:05.183Z,2880
2016-03-20T10:14:05.200Z,2756
2016-03-20T10:15:05.203Z,2664
2016-03-20T10:16:05.252Z,2620
2016-03-20T10:17:05.239Z,2604
2016-03-20T10:18:05.258Z,2648
2016-03-20T10:19:05.276Z,2684
2016-03-20T10:20:05.280Z,2780
2016-03-20T10:21:05.297Z,2868
2016-03-20T10:22:05.300Z,2908
2016-03-20T10:23:05.319Z,2948
2016-03-20T10:24:05.337Z,2852
2016-03-20T10:25:05.355Z,2764
2016-03-20T10:26:05.389Z,2712
2016-03-20T10:27:05.391Z,2732
2016-03-20T10:28:05.394Z,2744
2016-03-20T10:29:05.429Z,2752
2016-03-20T10:30:05.479Z,2764
2016-03-20T10:31:05.481Z,2716
2016-03-20T10:32:05.484Z,2672
2016-03-20T10:33:05.315Z,2688
2016-03-20T10:34:05.489Z,2696
2016-03-20T10:35:05.492Z,2676
2016-03-20T10:36:05.525Z,2668
2016-03-20T10:37:05.529Z,2680
2016-03-20T10:38:05.390Z,2708
2016-03-20T10:39:05.564Z,2724
2016-03-20T10:40:05.583Z,2776
2016-03-20T10:41:05.617Z,2796
2016-03-20T10:42:05.619Z,2812
2016-03-20T10:43:05.638Z,2884
2016-03-20T10:44:05.656Z,2944
2016-03-20T10:45:05.675Z,2956
2016-03-20T10:46:05.677Z,2956
2016-03-20T10:47:05.695Z,2936
2016-03-20T10:48:05.730Z,2924
2016-03-20T10:49:05.747Z,2964
2016-03-20T10:50:05.735Z,3016
2016-03-20T10:51:05.769Z,3096
2016-03-20T10:52:05.818Z,3148
2016-03-20T10:53:05.791Z,3312
2016-03-20T10:54:05.652Z,3488
2016-03-20T10:55:05.810Z,3628
2016-03-20T10:56:05.829Z,3632
2016-03-20T10:57:05.847Z,3692
2016-03-20T10:58:05.881Z,3824
2016-03-20T10:59:05.899Z,4012
2016-03-20T11:00:05.902Z,4336
2016-03-20T11:01:05.937Z,5172
2016-03-20T11:02:05.954Z,5448
2016-03-20T11:03:05.973Z,4680
2016-03-20T11:04:05.976Z,4544
2016-03-20T11:05:05.978Z,4448
2016-03-20T11:06:06.012Z,4480
2016-03-20T11:07:06.045Z,4628
2016-03-20T11:08:06.033Z,4480
2016-03-20T11:09:06.052Z,4332
2016-03-20T11:10:06.070Z,4312
2016-03-20T11:11:06.088Z,4308
2016-03-20T11:12:06.091Z,4248
2016-03-20T11:13:06.140Z,4200
2016-03-20T11:14:06.174Z,4248
2016-03-20T11:15:06.161Z,4184
2016-03-20T11:16:06.180Z,4072
2016-03-20T11:17:06.198Z,4140
2016-03-20T11:18:06.216Z,4260
2016-03-20T11:19:06.219Z,4756
2016-03-20T11:20:06.253Z,6540
2016-03-20T11:21:06.271Z,6784
2016-03-20T11:22:06.321Z,6208
2016-03-20T11:23:06.339Z,5640
2016-03-20T11:24:06.326Z,6296
2016-03-20T11:25:06.361Z,5920
2016-03-20T11:26:06.347Z,4436
2016-03-20T11:27:06.382Z,4176
2016-03-20T11:28:06.399Z,4296
2016-03-20T11:29:06.418Z,4336
2016-03-20T11:30:06.436Z,4304
2016-03-20T11:31:06.454Z,4368
2016-03-20T11:32:06.457Z,4488
2016-03-20T11:33:06.601Z,5408
2016-03-20T11:34:06.510Z,4576
2016-03-20T11:35:06.543Z,5484
2016-03-20T11:36:06.576Z,6092
2016-03-20T11:37:06.596Z,6296
2016-03-20T11:38:06.614Z,6148
2016-03-20T11:39:06.584Z,5228
2016-03-20T11:40:06.634Z,4488
2016-03-20T11:41:06.637Z,4304
2016-03-20T11:42:06.687Z,4580
2016-03-20T11:43:06.737Z,5560
2016-03-20T11:44:06.693Z,4304
2016-03-20T11:45:06.742Z,4808
2016-03-20T11:46:06.775Z,4860
2016-03-20T11:47:06.763Z,3992
2016-03-20T11:48:06.828Z,4296
2016-03-20T11:49:26.331Z,4260
2016-03-20T11:50:06.849Z,4236
2016-03-20T11:51:06.836Z,3808
2016-03-20T11:52:06.886Z,4484
2016-03-20T11:53:06.872Z,5740
2016-03-20T11:54:06.907Z,5804
2016-03-20T11:55:06.940Z,5820
2016-03-20T11:56:06.927Z,5080
2016-03-20T11:57:06.962Z,4916
2016-03-20T11:58:07.027Z,5076
2016-03-20T11:59:07.030Z,4560
2016-03-20T12:00:07.033Z,4896
2016-03-20T12:01:07.051Z,4732
2016-03-20T12:02:06.910Z,4908
2016-03-20T12:03:07.085Z,4812
2016-03-20T12:04:07.119Z,4780
2016-03-20T12:05:07.121Z,4736
2016-03-20T12:06:07.154Z,4808
2016-03-20T12:07:07.189Z,4620
2016-03-20T12:08:07.192Z,4588
2016-03-20T12:09:07.241Z,4564
2016-03-20T12:10:07.276Z,4596
2016-03-20T12:11:07.247Z,4696
2016-03-20T12:12:07.125Z,4576
2016-03-20T12:13:07.315Z,4408
2016-03-20T12:14:07.334Z,4336
2016-03-20T12:15:07.351Z,4320
2016-03-20T12:16:07.353Z,4308
2016-03-20T12:17:07.388Z,4492
2016-03-20T12:18:07.391Z,4520
2016-03-20T12:19:07.424Z,4504
2016-03-20T12:20:07.458Z,4424
2016-03-20T12:21:07.477Z,4480
2016-03-20T12:22:07.542Z,4468
2016-03-20T12:23:07.560Z,4404
2016-03-20T12:24:07.532Z,4400
2016-03-20T12:25:07.581Z,4428
2016-03-20T12:26:07.583Z,4372
2016-03-20T12:27:07.619Z,4308
2016-03-20T12:28:07.668Z,4208
2016-03-20T12:29:07.654Z,4160
2016-03-20T12:30:07.705Z,4156
2016-03-20T12:31:07.722Z,4172
2016-03-20T12:32:07.709Z,4184
2016-03-20T12:33:07.744Z,4200
2016-03-20T12:34:07.762Z,4256
2016-03-20T12:35:07.796Z,4244
2016-03-20T12:36:07.815Z,4240
2016-03-20T12:37:07.832Z,4220
2016-03-20T12:38:07.913Z,4212
2016-03-20T12:39:07.885Z,4164
2016-03-20T12:40:07.903Z,4120
2016-03-20T12:41:07.921Z,4112
2016-03-20T12:42:07.940Z,4112
2016-03-20T12:43:07.990Z,4048
2016-03-20T12:44:07.992Z,4024
2016-03-20T12:45:08.041Z,4004
2016-03-20T12:46:08.044Z,4004
2016-03-20T12:47:08.062Z,4004
2016-03-20T12:48:08.097Z,4012
2016-03-20T12:49:08.115Z,4060
2016-03-20T12:50:08.148Z,4044
2016-03-20T12:51:08.151Z,4036
2016-03-20T12:52:08.201Z,4044
2016-03-20T12:53:08.235Z,4036
2016-03-20T12:54:08.238Z,3960
2016-03-20T12:55:08.272Z,3920
2016-03-20T12:56:08.258Z,3844
2016-03-20T12:57:08.292Z,3832
2016-03-20T12:58:08.326Z,3880
2016-03-20T12:59:08.344Z,3888
2016-03-20T13:00:08.410Z,3856
2016-03-20T13:01:08.427Z,3864
2016-03-20T13:02:08.399Z,3860
2016-03-20T13:03:08.449Z,3824
2016-03-20T13:04:08.452Z,3820
2016-03-20T13:05:08.485Z,3764
2016-03-20T13:06:08.488Z,3700
2016-03-20T13:07:08.585Z,3652
2016-03-20T13:08:08.540Z,3636
2016-03-20T13:09:08.654Z,3624
2016-03-20T13:10:08.624Z,3640
2016-03-20T13:11:08.612Z,3636
2016-03-20T13:12:08.661Z,3632
2016-03-20T13:13:08.648Z,3616
2016-03-20T13:14:08.698Z,3640
2016-03-20T13:15:08.731Z,3504
2016-03-20T13:16:08.765Z,3516
2016-03-20T13:17:08.784Z,3500
2016-03-20T13:18:08.771Z,3572
2016-03-20T13:19:08.805Z,3596
2016-03-20T13:20:08.839Z,3652
2016-03-20T13:21:08.842Z,3648
2016-03-20T13:22:08.891Z,3640
2016-03-20T13:23:08.925Z,3588
2016-03-20T13:24:08.912Z,3540
2016-03-20T13:25:08.915Z,3504
2016-03-20T13:26:08.949Z,3544
2016-03-20T13:27:08.983Z,3580
2016-03-20T13:28:12.688Z,3588
2016-03-20T13:29:09.066Z,3576
2016-03-20T13:30:09.038Z,3564
2016-03-20T13:31:09.072Z,3576
2016-03-20T13:32:09.123Z,3372
2016-03-20T13:33:09.125Z,3324
2016-03-20T13:34:09.129Z,3372
2016-03-20T13:35:09.117Z,3428
2016-03-20T13:36:09.167Z,3408
2016-03-20T13:37:09.171Z,3344
2016-03-20T13:38:09.160Z,3308
2016-03-20T13:39:09.032Z,3328
2016-03-20T13:40:09.200Z,3364
2016-03-20T13:41:09.214Z,3352
2016-03-20T13:42:09.242Z,3304
2016-03-20T13:43:09.239Z,3272
2016-03-20T13:44:09.256Z,3300
2016-03-20T13:45:09.273Z,3316
2016-03-20T13:46:09.336Z,3368
2016-03-20T13:47:09.353Z,3332
2016-03-20T13:48:09.353Z,3248
2016-03-20T13:49:09.386Z,3228
2016-03-20T13:50:09.403Z,3276
2016-03-20T13:51:09.420Z,3284
2016-03-20T13:52:09.453Z,3340
2016-03-20T13:53:09.455Z,3268
2016-03-20T13:54:09.537Z,3248
2016-03-20T13:55:09.524Z,3220
2016-03-20T13:56:09.526Z,3180
2016-03-20T13:57:09.559Z,3172
2016-03-20T13:58:09.577Z,3180
2016-03-20T13:59:09.580Z,3168
2016-03-20T14:00:09.629Z,3148